Winn, Michigan
Current Conditions -  °F | °C
As of 11:15 AM on Sunday 23 Nov 2014 (Local Time) from KMOP Reporting Station
Overcast Overcast  
Wind Chill: 50°   Ceiling: 3300
Heat Index: 50°   Visibility: 10mi
Dew Point: 46°   Wind: 8mph
Humidity: 86%   Direction: 170°S
Pressure: 29.78"   Gusts: NA
Location:  43.52°N, 84.9°W
Report Text: KMOP 231615Z AUTO 17007KT 10SM OVC033 10/08 A2978 RMK AO2 T01010078
Loading
Personal Weather Stations






























Interactive Weather Map New forecast layout! Learn more

10-Day Weather Forecast

Advertisements
Track Severe Weather on mobile